createdAt,value
2022-08-17T00:00:43.193Z,12.55
2022-08-17T00:01:22.532Z,7.65
2022-08-17T00:01:58.478Z,19.05
2022-08-17T00:02:33.738Z,10.57
2022-08-17T00:03:19.123Z,23.38
2022-08-17T00:03:52.666Z,10.95
2022-08-17T00:04:24.863Z,37.65
2022-08-17T00:04:59.883Z,16.58
2022-08-17T00:05:34.795Z,39.08
2022-08-17T00:06:13.118Z,16.60
2022-08-17T00:06:45.416Z,19.40
2022-08-17T00:07:18.316Z,16.50
2022-08-17T00:07:50.699Z,18.33
2022-08-17T00:08:28.231Z,16.83
2022-08-17T00:09:03.279Z,13.32
2022-08-17T00:09:35.513Z,17.15
2022-08-17T00:10:10.993Z,63.25
2022-08-17T00:10:45.478Z,11.07
2022-08-17T00:11:22.849Z,15.63
2022-08-17T00:12:40.867Z,21.90
2022-08-17T00:12:49.857Z,43.67
2022-08-17T00:13:29.628Z,18.08
2022-08-17T00:14:05.091Z,20.08
2022-08-17T00:14:37.483Z,17.95
2022-08-17T00:15:10.876Z,24.52
2022-08-17T00:15:45.851Z,15.32
2022-08-17T00:16:21.280Z,13.63
2022-08-17T00:17:16.044Z,13.40
2022-08-17T00:17:50.631Z,23.05
2022-08-17T00:19:00.997Z,11.18
2022-08-17T00:19:23.045Z,18.80
2022-08-17T00:19:55.206Z,13.75
2022-08-17T00:20:30.606Z,15.82
2022-08-17T00:21:12.203Z,19.60
2022-08-17T00:22:32.890Z,20.95
2022-08-17T00:22:40.062Z,20.42
2022-08-17T00:23:17.033Z,23.55
2022-08-17T00:23:49.936Z,20.27
2022-08-17T00:24:22.280Z,45.88
2022-08-17T00:24:57.069Z,45.13
2022-08-17T00:25:29.258Z,14.55
2022-08-17T00:26:04.311Z,10.10
2022-08-17T00:26:43.465Z,54.50
2022-08-17T00:27:17.853Z,68.93
2022-08-17T00:27:55.152Z,13.27
2022-08-17T00:28:31.088Z,19.30
2022-08-17T00:29:06.554Z,45.35
2022-08-17T00:29:42.340Z,22.45
2022-08-17T00:30:14.901Z,42.95
2022-08-17T00:30:52.780Z,17.95
2022-08-17T00:31:28.535Z,25.40
2022-08-17T00:33:15.072Z,22.50
2022-08-17T00:33:15.945Z,26.50
2022-08-17T00:33:49.514Z,18.95
2022-08-17T00:34:21.807Z,16.33
2022-08-17T00:34:53.914Z,13.60
2022-08-17T00:35:27.899Z,25.13
2022-08-17T00:36:06.066Z,24.02
2022-08-17T00:36:38.205Z,18.48
2022-08-17T00:37:10.391Z,18.67
2022-08-17T00:37:45.246Z,14.80
2022-08-17T00:38:17.867Z,13.73
2022-08-17T00:38:50.508Z,11.18
2022-08-17T00:39:25.324Z,18.05
2022-08-17T00:39:57.686Z,18.60
2022-08-17T00:40:40.072Z,15.48
2022-08-17T00:41:21.735Z,23.50
2022-08-17T00:41:53.915Z,12.20
2022-08-17T00:42:30.821Z,20.10
2022-08-17T00:43:15.276Z,47.67
2022-08-17T00:43:52.672Z,24.45
2022-08-17T00:44:24.834Z,14.68
2022-08-17T00:45:04.582Z,25.05
2022-08-17T00:45:39.355Z,11.30
2022-08-17T00:46:15.257Z,17.73
2022-08-17T00:46:48.089Z,19.45
2022-08-17T00:47:22.919Z,40.83
2022-08-17T00:47:55.122Z,22.17
2022-08-17T00:48:30.123Z,13.23
2022-08-17T00:49:06.354Z,20.63
2022-08-17T00:49:38.533Z,33.17
2022-08-17T00:50:13.967Z,15.68
2022-08-17T00:50:55.947Z,28.17
2022-08-17T00:51:36.296Z,15.45
2022-08-17T00:52:16.688Z,17.20
2022-08-17T00:53:25.735Z,18.73
2022-08-17T00:54:05.680Z,20.27
2022-08-17T00:54:42.565Z,19.20
2022-08-17T00:55:15.143Z,12.63
2022-08-17T00:55:50.324Z,27.15
2022-08-17T00:56:28.520Z,26.23
2022-08-17T00:57:05.185Z,31.05
2022-08-17T00:57:45.405Z,18.67
2022-08-17T00:58:36.235Z,30.00
2022-08-17T00:59:14.424Z,34.97
2022-08-17T01:00:02.477Z,18.73
2022-08-17T01:00:43.643Z,23.92
2022-08-17T01:01:21.615Z,17.98
2022-08-17T01:01:54.932Z,18.63
2022-08-17T01:02:34.326Z,30.55
2022-08-17T01:03:25.360Z,14.65
2022-08-17T01:04:00.357Z,24.23
2022-08-17T01:04:33.640Z,21.38
2022-08-17T01:05:07.930Z,18.85
2022-08-17T01:05:44.421Z,18.67
2022-08-17T01:06:17.956Z,36.85
2022-08-17T01:06:51.294Z,11.00
2022-08-17T01:07:24.991Z,32.08
2022-08-17T01:08:01.521Z,20.35
2022-08-17T01:08:34.491Z,29.05
2022-08-17T01:09:08.759Z,16.25
2022-08-17T01:09:44.677Z,15.60
2022-08-17T01:10:59.083Z,14.82
2022-08-17T01:11:15.530Z,15.98
2022-08-17T01:11:52.427Z,22.30
2022-08-17T01:12:24.991Z,27.75
2022-08-17T01:12:59.810Z,28.20
2022-08-17T01:13:41.064Z,35.15
2022-08-17T01:14:16.265Z,11.68
2022-08-17T01:14:48.674Z,12.38
2022-08-17T01:15:20.946Z,66.55
2022-08-17T01:16:00.203Z,15.90
2022-08-17T01:16:32.872Z,16.48
2022-08-17T01:17:07.764Z,21.80
2022-08-17T01:17:40.620Z,31.25
2022-08-17T01:18:13.792Z,28.50
2022-08-17T01:18:52.181Z,14.45
2022-08-17T01:19:28.844Z,24.27
2022-08-17T01:20:01.063Z,10.95
2022-08-17T01:20:43.067Z,15.90
2022-08-17T01:21:27.885Z,7.88
2022-08-17T01:22:05.166Z,16.17
2022-08-17T01:22:42.670Z,21.05
2022-08-17T01:23:20.593Z,22.42
2022-08-17T01:23:53.250Z,66.03
2022-08-17T01:24:25.733Z,17.10
2022-08-17T01:25:02.530Z,19.13
2022-08-17T01:25:35.404Z,20.40
2022-08-17T01:26:07.731Z,50.55
2022-08-17T01:26:44.874Z,74.47
2022-08-17T01:27:18.558Z,28.08
2022-08-17T01:27:52.911Z,31.75
2022-08-17T01:28:33.466Z,18.55
2022-08-17T01:29:24.534Z,36.92
2022-08-17T01:30:01.937Z,20.17
2022-08-17T01:30:56.741Z,18.13
2022-08-17T01:31:35.265Z,39.95
2022-08-17T01:32:08.745Z,26.75
2022-08-17T01:32:41.528Z,18.80
2022-08-17T01:33:16.327Z,21.88
2022-08-17T01:33:48.605Z,30.08
2022-08-17T01:34:21.756Z,28.65
2022-08-17T01:34:58.295Z,21.85
2022-08-17T01:35:30.670Z,23.15
2022-08-17T01:36:03.723Z,11.38
2022-08-17T01:36:39.370Z,17.20
2022-08-17T01:37:13.585Z,31.90
2022-08-17T01:37:48.387Z,19.88
2022-08-17T01:38:27.001Z,12.35
2022-08-17T01:39:00.250Z,28.95
2022-08-17T01:39:35.005Z,21.02
2022-08-17T01:40:17.347Z,12.70
2022-08-17T01:40:57.442Z,29.50
2022-08-17T01:41:29.907Z,11.20
2022-08-17T01:42:12.079Z,54.22
2022-08-17T01:42:51.856Z,15.45
2022-08-17T01:43:31.334Z,32.90
2022-08-17T01:44:06.851Z,15.85
2022-08-17T01:44:39.448Z,23.20
2022-08-17T01:45:19.745Z,17.35
2022-08-17T01:46:40.130Z,12.25
2022-08-17T01:47:12.447Z,15.63
2022-08-17T01:47:44.927Z,14.32
2022-08-17T01:48:20.587Z,19.92
2022-08-17T01:48:53.508Z,14.75
2022-08-17T01:49:25.641Z,15.25
2022-08-17T01:50:00.407Z,19.75
2022-08-17T01:50:35.109Z,15.57
2022-08-17T01:51:07.802Z,19.40
2022-08-17T01:51:43.183Z,14.73
2022-08-17T01:52:16.204Z,10.73
2022-08-17T01:52:56.166Z,26.98
2022-08-17T01:53:36.703Z,12.18
2022-08-17T01:54:13.040Z,10.55
2022-08-17T01:54:47.575Z,27.05
2022-08-17T01:55:27.828Z,20.38
2022-08-17T01:56:04.407Z,13.38
2022-08-17T01:56:41.345Z,32.20
2022-08-17T01:57:16.787Z,70.13
2022-08-17T01:57:48.928Z,21.58
2022-08-17T01:58:21.917Z,33.40
2022-08-17T01:58:56.717Z,12.27
2022-08-17T01:59:28.959Z,35.30
2022-08-17T02:00:01.546Z,20.35
2022-08-17T02:00:59.492Z,14.32
2022-08-17T02:01:31.690Z,17.00
2022-08-17T02:02:07.676Z,16.73
2022-08-17T02:02:40.163Z,23.35
2022-08-17T02:03:13.120Z,15.55
2022-08-17T02:03:53.180Z,34.20
2022-08-17T02:04:34.836Z,32.03
2022-08-17T02:05:08.422Z,17.90
2022-08-17T02:05:40.981Z,21.77
2022-08-17T02:06:27.852Z,14.98
2022-08-17T02:07:00.589Z,34.70
2022-08-17T02:07:59.538Z,32.28
2022-08-17T02:08:38.740Z,20.25
2022-08-17T02:09:16.876Z,56.15
2022-08-17T02:09:52.805Z,16.08
2022-08-17T02:10:25.099Z,22.73
2022-08-17T02:11:12.039Z,23.30
2022-08-17T02:11:46.265Z,49.53
2022-08-17T02:12:38.814Z,15.65
2022-08-17T02:13:13.822Z,32.85
2022-08-17T02:13:48.694Z,9.20
2022-08-17T02:14:33.026Z,19.35
2022-08-17T02:15:07.155Z,16.10
2022-08-17T02:15:42.025Z,24.70
2022-08-17T02:16:14.741Z,13.57
2022-08-17T02:16:47.015Z,100.80
2022-08-17T02:17:21.842Z,29.40
2022-08-17T02:17:54.845Z,12.43
2022-08-17T02:18:28.110Z,13.60
2022-08-17T02:19:03.707Z,14.35
2022-08-17T02:19:35.914Z,27.33
2022-08-17T02:20:09.838Z,30.33
2022-08-17T02:20:45.134Z,11.15
2022-08-17T02:21:17.414Z,10.75
2022-08-17T02:21:51.691Z,45.90
2022-08-17T02:22:26.194Z,22.55
2022-08-17T02:23:03.781Z,25.15
2022-08-17T02:23:45.123Z,55.63
2022-08-17T02:24:58.641Z,33.38
2022-08-17T02:25:20.762Z,36.13
2022-08-17T02:25:59.155Z,17.33
2022-08-17T02:26:31.374Z,40.47
2022-08-17T02:27:06.549Z,30.98
2022-08-17T02:27:39.727Z,24.67
2022-08-17T02:28:12.494Z,25.33
2022-08-17T02:28:47.218Z,22.55
2022-08-17T02:29:19.994Z,16.98
2022-08-17T02:29:52.193Z,25.92
2022-08-17T02:30:30.931Z,16.58
2022-08-17T02:31:19.553Z,26.20
2022-08-17T02:31:51.671Z,24.75
2022-08-17T02:32:29.515Z,13.20
2022-08-17T02:33:04.207Z,14.85
2022-08-17T02:33:43.510Z,49.42
2022-08-17T02:34:18.731Z,11.98
2022-08-17T02:34:51.247Z,14.63
2022-08-17T02:35:23.790Z,25.65
2022-08-17T02:35:58.581Z,12.75
2022-08-17T02:36:30.703Z,18.33
2022-08-17T02:37:02.840Z,19.45
2022-08-17T02:37:38.208Z,28.25
2022-08-17T02:38:10.485Z,19.52
2022-08-17T02:38:45.206Z,12.43
2022-08-17T02:39:20.036Z,24.73
2022-08-17T02:39:52.482Z,17.73
2022-08-17T02:40:36.259Z,34.42
2022-08-17T02:41:13.212Z,15.93
2022-08-17T02:41:45.759Z,28.15
2022-08-17T02:42:18.095Z,28.15
2022-08-17T02:42:52.947Z,21.85
2022-08-17T02:43:25.275Z,25.90
2022-08-17T02:43:57.495Z,35.15
2022-08-17T02:44:38.678Z,37.17
2022-08-17T02:45:15.671Z,53.35
2022-08-17T02:45:47.984Z,46.63
2022-08-17T02:46:20.280Z,39.55
2022-08-17T02:46:55.080Z,32.13
2022-08-17T02:47:28.066Z,38.17
2022-08-17T02:48:00.244Z,20.85
2022-08-17T02:48:34.955Z,28.92
2022-08-17T02:49:07.077Z,29.70
2022-08-17T02:49:39.203Z,37.75
2022-08-17T02:50:17.392Z,23.60
2022-08-17T02:50:49.644Z,31.20
2022-08-17T02:51:22.112Z,15.18
2022-08-17T02:51:56.971Z,28.45
2022-08-17T02:52:43.191Z,18.88
2022-08-17T02:53:16.057Z,20.88
2022-08-17T02:54:05.327Z,27.50
2022-08-17T02:54:46.210Z,13.55
2022-08-17T02:55:23.647Z,30.02
2022-08-17T02:55:56.005Z,23.50
2022-08-17T02:56:28.587Z,18.08
2022-08-17T02:57:03.455Z,22.48
2022-08-17T02:57:37.207Z,20.77
2022-08-17T02:58:10.913Z,19.02
2022-08-17T02:58:46.431Z,63.05
2022-08-17T02:59:18.596Z,15.05
2022-08-17T02:59:50.806Z,21.92
2022-08-17T03:00:28.951Z,19.05
2022-08-17T03:01:01.259Z,29.17
2022-08-17T03:01:33.414Z,14.90
2022-08-17T03:02:10.610Z,27.70
2022-08-17T03:02:46.284Z,21.35
2022-08-17T03:03:19.128Z,46.28
2022-08-17T03:03:53.957Z,26.00
2022-08-17T03:04:26.139Z,20.50
2022-08-17T03:04:58.457Z,33.78
2022-08-17T03:05:35.605Z,31.65
2022-08-17T03:06:08.711Z,27.33
2022-08-17T03:06:40.872Z,24.20
2022-08-17T03:07:16.289Z,30.58
2022-08-17T03:07:49.022Z,22.77
2022-08-17T03:08:21.210Z,21.95
2022-08-17T03:08:58.625Z,18.15
2022-08-17T03:09:30.853Z,18.35
2022-08-17T03:10:03.170Z,18.30
2022-08-17T03:10:37.912Z,15.50
2022-08-17T03:11:10.537Z,38.28
2022-08-17T03:11:42.762Z,38.67
2022-08-17T03:12:18.168Z,55.95
2022-08-17T03:12:51.670Z,13.60
2022-08-17T03:13:24.283Z,54.45
2022-08-17T03:13:59.327Z,56.22
2022-08-17T03:14:32.343Z,21.42
2022-08-17T03:15:06.863Z,24.75
2022-08-17T03:15:43.858Z,56.70
2022-08-17T03:16:16.762Z,86.18
2022-08-17T03:16:48.892Z,29.17
2022-08-17T03:17:23.803Z,14.45
2022-08-17T03:17:56.911Z,38.88
2022-08-17T03:18:29.331Z,16.25
2022-08-17T03:19:04.097Z,25.38
2022-08-17T03:19:36.262Z,11.90
2022-08-17T03:20:12.940Z,16.30
2022-08-17T03:20:47.780Z,39.38
2022-08-17T03:21:19.933Z,17.00
2022-08-17T03:21:55.108Z,70.68
2022-08-17T03:22:36.085Z,78.25
2022-08-17T03:23:10.538Z,182.75
2022-08-17T03:23:43.205Z,83.65
2022-08-17T03:24:20.476Z,78.28
2022-08-17T03:25:00.920Z,71.22
2022-08-17T03:25:35.525Z,133.25
2022-08-17T03:26:15.304Z,84.18
2022-08-17T03:26:47.776Z,106.55
2022-08-17T03:27:19.941Z,87.55
2022-08-17T03:27:52.657Z,91.72
2022-08-17T03:28:28.323Z,167.85
2022-08-17T03:29:00.462Z,106.95
2022-08-17T03:29:32.646Z,98.43
2022-08-17T03:30:09.298Z,88.85
2022-08-17T03:30:41.952Z,45.80
2022-08-17T03:31:18.474Z,27.35
2022-08-17T03:31:50.882Z,24.67
2022-08-17T03:32:23.330Z,81.32
2022-08-17T03:32:58.356Z,31.63
2022-08-17T03:33:33.192Z,23.73
2022-08-17T03:34:05.363Z,21.02
2022-08-17T03:34:37.508Z,92.22
2022-08-17T03:35:10.423Z,34.67
2022-08-17T03:35:48.094Z,48.35
2022-08-17T03:36:22.853Z,47.15
2022-08-17T03:36:55.373Z,28.25
2022-08-17T03:37:27.584Z,43.42
2022-08-17T03:38:02.745Z,24.15
2022-08-17T03:38:38.934Z,24.65
2022-08-17T03:39:14.364Z,31.52
2022-08-17T03:39:49.420Z,24.08
2022-08-17T03:40:57.765Z,12.98
2022-08-17T03:41:16.956Z,19.33
2022-08-17T03:41:49.115Z,29.00
2022-08-17T03:42:32.123Z,40.47
2022-08-17T03:43:09.640Z,88.97
2022-08-17T03:43:41.848Z,53.35
2022-08-17T03:44:14.164Z,53.15
2022-08-17T03:44:51.628Z,46.95
2022-08-17T03:45:44.051Z,41.75
2022-08-17T03:46:35.113Z,44.85
2022-08-17T03:47:34.178Z,48.03
2022-08-17T03:48:21.497Z,78.97
2022-08-17T03:49:08.792Z,68.00
2022-08-17T03:49:55.951Z,28.73
2022-08-17T03:50:43.065Z,30.48
2022-08-17T03:51:35.804Z,47.05
2022-08-17T03:52:22.996Z,46.58
2022-08-17T03:53:10.578Z,64.15
2022-08-17T03:54:04.434Z,46.03
2022-08-17T03:54:55.134Z,32.70
2022-08-17T03:55:44.992Z,55.33
2022-08-17T03:56:32.179Z,50.85
2022-08-17T03:57:09.321Z,52.80
2022-08-17T03:57:41.452Z,96.47
2022-08-17T03:58:13.651Z,81.53
2022-08-17T03:58:49.632Z,66.93
2022-08-17T03:59:23.363Z,54.13
2022-08-17T04:00:01.199Z,58.05
2022-08-17T04:00:35.780Z,100.55
2022-08-17T04:01:12.231Z,69.25
2022-08-17T04:01:47.897Z,74.43
2022-08-17T04:02:24.246Z,52.50
2022-08-17T04:02:56.579Z,35.75
2022-08-17T04:03:31.479Z,54.45
2022-08-17T04:04:04.256Z,86.00
2022-08-17T04:04:37.482Z,64.28
2022-08-17T04:05:12.645Z,52.10
2022-08-17T04:05:45.422Z,90.28
2022-08-17T04:06:17.633Z,59.63
2022-08-17T04:06:52.435Z,71.38
2022-08-17T04:07:27.703Z,61.13
2022-08-17T04:07:59.855Z,100.45
2022-08-17T04:08:32.079Z,116.22
2022-08-17T04:09:07.026Z,117.65
2022-08-17T04:09:39.306Z,135.85
2022-08-17T04:10:11.600Z,129.43
2022-08-17T04:10:49.383Z,69.03
2022-08-17T04:11:21.598Z,88.43
2022-08-17T04:11:54.525Z,84.70
2022-08-17T04:12:44.971Z,126.13
2022-08-17T04:13:24.710Z,89.38
2022-08-17T04:13:57.833Z,99.15
2022-08-17T04:14:39.340Z,103.10
2022-08-17T04:15:26.674Z,76.88
2022-08-17T04:16:00.092Z,83.20
2022-08-17T04:16:36.173Z,91.68
2022-08-17T04:17:08.394Z,47.63
2022-08-17T04:17:41.104Z,112.57
2022-08-17T04:18:15.914Z,92.88
2022-08-17T04:18:48.079Z,54.78
2022-08-17T04:19:20.258Z,71.20
2022-08-17T04:19:55.881Z,68.75
2022-08-17T04:20:28.946Z,99.60
2022-08-17T04:21:01.250Z,70.35
2022-08-17T04:21:36.452Z,48.30
2022-08-17T04:22:08.695Z,54.78
2022-08-17T04:22:55.096Z,83.28
2022-08-17T04:23:34.073Z,125.30
2022-08-17T04:24:06.753Z,92.97
2022-08-17T04:24:38.950Z,95.70
2022-08-17T04:25:19.324Z,87.15
2022-08-17T04:26:53.748Z,87.32
2022-08-17T04:27:21.504Z,94.28
2022-08-17T04:27:53.740Z,89.40
2022-08-17T04:28:26.108Z,126.90
2022-08-17T04:29:01.423Z,89.60
2022-08-17T04:29:54.824Z,94.03
2022-08-17T04:30:30.262Z,83.95
2022-08-17T04:31:02.470Z,59.78
2022-08-17T04:31:37.255Z,74.28
2022-08-17T04:32:09.414Z,69.75
2022-08-17T04:33:03.988Z,82.22
2022-08-17T04:33:42.626Z,99.53
2022-08-17T04:34:14.910Z,48.55
2022-08-17T04:34:53.132Z,45.67
2022-08-17T04:35:30.819Z,83.20
2022-08-17T04:36:06.474Z,76.55
2022-08-17T04:36:41.401Z,55.53
2022-08-17T04:37:22.514Z,76.82
2022-08-17T04:37:54.715Z,85.97
2022-08-17T04:38:31.509Z,99.03
2022-08-17T04:39:04.495Z,88.32
2022-08-17T04:39:39.287Z,72.57
2022-08-17T04:40:27.583Z,85.15
2022-08-17T04:41:18.209Z,76.20
2022-08-17T04:42:05.371Z,75.63
2022-08-17T04:42:37.511Z,56.47
2022-08-17T04:43:11.970Z,65.88
2022-08-17T04:43:48.476Z,90.45
2022-08-17T04:44:37.125Z,106.45
2022-08-17T04:45:11.030Z,125.38
2022-08-17T04:45:55.650Z,88.22
2022-08-17T04:46:32.946Z,90.75
2022-08-17T04:47:07.997Z,71.65
2022-08-17T04:47:42.904Z,53.40
2022-08-17T04:48:15.200Z,64.05
2022-08-17T04:48:52.377Z,66.20
2022-08-17T04:49:24.665Z,102.68
2022-08-17T04:49:56.901Z,81.00
2022-08-17T04:50:31.743Z,65.32
2022-08-17T04:51:07.043Z,65.13
2022-08-17T04:51:45.500Z,87.82
2022-08-17T04:52:42.992Z,97.28
2022-08-17T04:53:17.493Z,95.82
2022-08-17T04:53:55.009Z,96.30
2022-08-17T04:54:27.793Z,60.25
2022-08-17T04:55:03.407Z,81.50
2022-08-17T04:55:38.790Z,77.97
2022-08-17T04:56:16.908Z,70.53
2022-08-17T04:56:53.652Z,131.68
2022-08-17T04:57:25.883Z,116.05
2022-08-17T04:57:58.143Z,78.38
2022-08-17T04:58:30.349Z,78.80
2022-08-17T04:59:07.180Z,74.60
2022-08-17T04:59:39.330Z,67.40
2022-08-17T05:00:12.663Z,77.32
2022-08-17T05:00:47.536Z,119.60
2022-08-17T05:01:24.050Z,106.75
2022-08-17T05:01:59.227Z,90.65
2022-08-17T05:02:32.217Z,79.28
2022-08-17T05:03:05.001Z,118.15
2022-08-17T05:03:37.190Z,100.97
2022-08-17T05:04:33.099Z,80.50
2022-08-17T05:05:07.544Z,74.72
2022-08-17T05:05:44.735Z,78.00
2022-08-17T05:06:23.178Z,101.10
2022-08-17T05:06:55.835Z,70.47
2022-08-17T05:07:31.444Z,63.30
2022-08-17T05:08:08.882Z,67.68
2022-08-17T05:08:41.524Z,100.75
2022-08-17T05:09:17.536Z,75.90
2022-08-17T05:09:49.954Z,87.03
2022-08-17T05:10:22.488Z,102.35
2022-08-17T05:10:57.698Z,112.28
2022-08-17T05:11:32.632Z,91.15
2022-08-17T05:12:08.077Z,76.40
2022-08-17T05:12:40.292Z,172.32
2022-08-17T05:13:15.680Z,134.60
2022-08-17T05:13:52.494Z,82.70
2022-08-17T05:14:33.288Z,93.40
2022-08-17T05:15:12.466Z,100.22
2022-08-17T05:15:48.881Z,89.53
2022-08-17T05:16:22.670Z,121.53
2022-08-17T05:16:54.908Z,89.40
2022-08-17T05:17:29.601Z,115.32
2022-08-17T05:18:02.313Z,144.15
2022-08-17T05:18:34.874Z,181.20
2022-08-17T05:19:09.761Z,160.73
2022-08-17T05:19:41.952Z,101.57
2022-08-17T05:20:14.137Z,162.20
2022-08-17T05:20:46.848Z,176.50
2022-08-17T05:21:22.344Z,170.50
2022-08-17T05:21:54.536Z,144.85
2022-08-17T05:22:26.908Z,108.00
2022-08-17T05:23:07.188Z,103.88
2022-08-17T05:24:42.477Z,112.47
2022-08-17T05:25:10.350Z,105.72
2022-08-17T05:25:45.686Z,105.43
2022-08-17T05:26:26.839Z,84.32
2022-08-17T05:27:06.233Z,108.60
2022-08-17T05:27:41.610Z,80.80
2022-08-17T05:28:16.175Z,72.10
2022-08-17T05:28:48.859Z,113.70
2022-08-17T05:29:33.573Z,96.97
2022-08-17T05:30:08.952Z,98.80
2022-08-17T05:30:42.695Z,88.38
2022-08-17T05:31:17.581Z,99.32
2022-08-17T05:31:49.708Z,71.43
2022-08-17T05:32:37.821Z,147.90
2022-08-17T05:33:16.993Z,99.45
2022-08-17T05:33:49.726Z,90.38
2022-08-17T05:34:24.601Z,124.97
2022-08-17T05:35:00.053Z,89.38
2022-08-17T05:35:34.806Z,113.75
2022-08-17T05:36:11.742Z,69.50
2022-08-17T05:37:03.999Z,70.00
2022-08-17T05:37:39.171Z,99.10
2022-08-17T05:38:11.797Z,70.40
2022-08-17T05:38:46.629Z,75.32
2022-08-17T05:39:18.846Z,88.22
2022-08-17T05:39:51.060Z,62.40
2022-08-17T05:40:25.332Z,67.07
2022-08-17T05:41:01.362Z,89.72
2022-08-17T05:41:33.532Z,104.40
2022-08-17T05:42:09.358Z,110.20
2022-08-17T05:42:44.591Z,83.45
2022-08-17T05:43:19.858Z,82.90
2022-08-17T05:43:56.203Z,98.38
2022-08-17T05:44:31.319Z,61.97
2022-08-17T05:45:03.820Z,65.30
2022-08-17T05:45:55.809Z,114.40
2022-08-17T05:46:38.650Z,72.90
2022-08-17T05:47:10.846Z,59.33
2022-08-17T05:47:44.707Z,103.80
2022-08-17T05:48:19.518Z,57.30
2022-08-17T05:48:56.238Z,67.57
2022-08-17T05:49:31.852Z,94.40
2022-08-17T05:50:09.767Z,171.45
2022-08-17T05:50:51.546Z,189.98
2022-08-17T05:51:41.987Z,134.30
2022-08-17T05:52:59.337Z,114.18
2022-08-17T05:53:44.319Z,59.40
2022-08-17T05:54:29.825Z,91.63
2022-08-17T05:55:17.017Z,52.15
2022-08-17T05:55:55.720Z,68.13
2022-08-17T05:56:54.297Z,49.25
2022-08-17T05:57:44.806Z,74.10
2022-08-17T05:58:33.555Z,113.93
2022-08-17T05:59:14.430Z,92.10
2022-08-17T05:59:57.758Z,99.88
2022-08-17T06:00:44.534Z,105.57
2022-08-17T06:01:30.159Z,52.42
2022-08-17T06:02:10.975Z,63.33
2022-08-17T06:03:01.040Z,68.13
2022-08-17T06:03:49.803Z,99.75
2022-08-17T06:04:34.563Z,57.78
2022-08-17T06:05:17.060Z,74.53
2022-08-17T06:06:09.225Z,101.15
2022-08-17T06:06:46.189Z,100.68
2022-08-17T06:07:21.834Z,86.72
2022-08-17T06:08:05.339Z,49.47
2022-08-17T06:08:51.623Z,90.18
2022-08-17T06:09:41.298Z,64.13
2022-08-17T06:10:24.806Z,77.88
2022-08-17T06:11:02.911Z,97.20
2022-08-17T06:11:53.329Z,70.43
2022-08-17T06:12:54.887Z,80.60
2022-08-17T06:13:45.909Z,34.85
2022-08-17T06:14:55.973Z,48.90
2022-08-17T06:15:36.707Z,82.88
2022-08-17T06:16:28.172Z,59.20
2022-08-17T06:17:10.706Z,73.78
2022-08-17T06:17:46.034Z,41.17
2022-08-17T06:18:21.556Z,79.40
2022-08-17T06:19:02.412Z,64.30
2022-08-17T06:19:44.108Z,103.07
2022-08-17T06:20:16.455Z,91.53
2022-08-17T06:20:55.068Z,71.57
2022-08-17T06:21:33.562Z,86.90
2022-08-17T06:22:09.093Z,74.40
2022-08-17T06:22:46.257Z,81.20
2022-08-17T06:23:26.315Z,87.60
2022-08-17T06:24:08.442Z,59.05
2022-08-17T06:24:44.890Z,48.83
2022-08-17T06:25:21.726Z,62.05
2022-08-17T06:26:01.482Z,59.08
2022-08-17T06:26:42.472Z,63.03
2022-08-17T06:27:25.198Z,82.18
2022-08-17T06:28:06.013Z,56.00
2022-08-17T06:28:44.428Z,90.45
2022-08-17T06:29:27.207Z,60.92
2022-08-17T06:30:09.676Z,46.72
2022-08-17T06:31:00.292Z,59.78
2022-08-17T06:31:38.657Z,94.15
2022-08-17T06:32:12.911Z,70.80
2022-08-17T06:32:48.640Z,56.25
2022-08-17T06:33:28.692Z,136.80
2022-08-17T06:34:03.534Z,64.05
2022-08-17T06:34:38.135Z,52.65
2022-08-17T06:35:15.393Z,74.53
2022-08-17T06:35:59.772Z,149.43
2022-08-17T06:36:51.368Z,84.32
2022-08-17T06:37:43.240Z,107.63
2022-08-17T06:38:37.666Z,72.13
2022-08-17T06:39:27.327Z,89.95
2022-08-17T06:40:17.282Z,88.18
2022-08-17T06:41:05.486Z,45.97
2022-08-17T06:41:49.578Z,47.95
2022-08-17T06:43:02.011Z,70.40
2022-08-17T06:43:59.670Z,59.70
2022-08-17T06:44:50.226Z,57.22
2022-08-17T06:45:31.350Z,91.20
2022-08-17T06:46:11.026Z,63.85
2022-08-17T06:46:48.756Z,87.28
2022-08-17T06:47:29.324Z,56.53
2022-08-17T06:48:10.165Z,99.57
2022-08-17T06:48:47.107Z,74.57
2022-08-17T06:49:27.012Z,65.03
2022-08-17T06:50:14.760Z,49.15
2022-08-17T06:50:51.473Z,43.17
2022-08-17T06:51:31.256Z,35.92
2022-08-17T06:52:42.242Z,76.40
2022-08-17T06:53:22.569Z,91.30
2022-08-17T06:54:02.907Z,65.05
2022-08-17T06:55:20.335Z,103.55
2022-08-17T06:55:57.348Z,66.35
2022-08-17T06:56:53.222Z,75.07
2022-08-17T06:57:31.135Z,48.58
2022-08-17T06:58:15.792Z,97.13
2022-08-17T06:58:49.678Z,111.18
2022-08-17T06:59:54.363Z,62.40
2022-08-17T07:00:26.339Z,92.20
2022-08-17T07:01:06.702Z,89.00
2022-08-17T07:01:45.432Z,99.15
2022-08-17T07:02:29.036Z,69.50
2022-08-17T07:03:29.125Z,60.80
2022-08-17T07:04:12.096Z,49.35
2022-08-17T07:04:44.668Z,58.47
2022-08-17T07:05:23.316Z,75.32
2022-08-17T07:06:01.251Z,76.55
2022-08-17T07:06:41.315Z,64.00
2022-08-17T07:07:28.564Z,88.00
2022-08-17T07:08:07.522Z,63.35
2022-08-17T07:08:52.387Z,57.58
2022-08-17T07:09:31.228Z,50.20
2022-08-17T07:10:04.498Z,56.83
2022-08-17T07:10:44.608Z,57.10
2022-08-17T07:11:21.029Z,58.80
2022-08-17T07:11:57.177Z,100.80
2022-08-17T07:12:38.672Z,61.70
2022-08-17T07:13:29.634Z,56.63
2022-08-17T07:14:17.494Z,69.55
2022-08-17T07:14:56.475Z,77.25
2022-08-17T07:15:43.614Z,78.63
2022-08-17T07:16:19.768Z,62.22
2022-08-17T07:16:58.591Z,57.85
2022-08-17T07:17:47.058Z,110.90
2022-08-17T07:18:29.817Z,50.20
2022-08-17T07:19:02.225Z,46.83
2022-08-17T07:19:38.294Z,69.50
2022-08-17T07:20:16.033Z,57.10
2022-08-17T07:20:51.608Z,92.10
2022-08-17T07:21:40.986Z,79.32
2022-08-17T07:22:22.005Z,67.78
2022-08-17T07:23:04.479Z,62.75
2022-08-17T07:23:47.696Z,67.80
2022-08-17T07:24:35.783Z,42.45
2022-08-17T07:25:10.508Z,40.28
2022-08-17T07:25:49.456Z,73.40
2022-08-17T07:26:26.238Z,52.90
2022-08-17T07:27:11.629Z,34.15
2022-08-17T07:27:51.547Z,48.67
2022-08-17T07:28:24.609Z,42.28
2022-08-17T07:28:57.422Z,89.65
2022-08-17T07:29:34.422Z,62.38
2022-08-17T07:30:16.720Z,51.22
2022-08-17T07:30:56.418Z,56.90
2022-08-17T07:31:33.577Z,57.05
2022-08-17T07:32:06.059Z,88.28
2022-08-17T07:32:45.354Z,53.25
2022-08-17T07:33:21.075Z,58.10
2022-08-17T07:34:06.896Z,63.55
2022-08-17T07:35:10.681Z,40.90
2022-08-17T07:35:48.499Z,64.40
2022-08-17T07:36:29.545Z,60.10
2022-08-17T07:37:07.339Z,43.92
2022-08-17T07:37:41.106Z,56.22
2022-08-17T07:38:24.691Z,49.03
2022-08-17T07:38:58.777Z,54.65
2022-08-17T07:39:31.572Z,66.25
2022-08-17T07:40:19.929Z,54.17
2022-08-17T07:41:05.342Z,67.35
2022-08-17T07:41:57.360Z,41.33
2022-08-17T07:42:31.495Z,71.93
2022-08-17T07:43:12.532Z,60.80
2022-08-17T07:43:56.696Z,43.97
2022-08-17T07:44:29.135Z,74.13
2022-08-17T07:45:23.230Z,95.63
2022-08-17T07:46:31.964Z,94.88
2022-08-17T07:47:20.295Z,54.80
2022-08-17T07:48:07.570Z,93.82
2022-08-17T07:48:43.971Z,87.45
2022-08-17T07:49:38.433Z,85.20
2022-08-17T07:50:27.296Z,79.57
2022-08-17T07:51:00.328Z,70.78
2022-08-17T07:51:37.969Z,97.00
2022-08-17T07:52:47.963Z,36.38
2022-08-17T07:53:20.182Z,69.88
2022-08-17T07:53:54.238Z,56.28
2022-08-17T07:54:32.835Z,45.20
2022-08-17T07:55:26.714Z,82.28
2022-08-17T07:55:58.892Z,53.58
2022-08-17T07:56:41.119Z,93.22
2022-08-17T07:57:39.741Z,45.40
2022-08-17T07:58:17.224Z,87.28
2022-08-17T07:59:05.630Z,71.55
2022-08-17T07:59:43.880Z,51.85
2022-08-17T08:00:29.148Z,82.40
2022-08-17T08:01:18.464Z,76.18
2022-08-17T08:02:06.237Z,89.60
2022-08-17T08:02:45.541Z,83.53
2022-08-17T08:03:26.235Z,74.30
2022-08-17T08:03:59.233Z,35.70
2022-08-17T08:05:49.904Z,73.30
2022-08-17T08:06:27.630Z,87.90
2022-08-17T08:07:02.696Z,54.53
2022-08-17T08:07:38.625Z,77.68
2022-08-17T08:08:28.622Z,60.70
2022-08-17T08:09:01.925Z,76.07
2022-08-17T08:09:38.708Z,86.80
2022-08-17T08:10:16.953Z,72.72
2022-08-17T08:11:00.127Z,74.05
2022-08-17T08:11:41.235Z,87.30
2022-08-17T08:12:34.046Z,97.07
2022-08-17T08:13:46.830Z,135.07
2022-08-17T08:14:29.609Z,87.80
2022-08-17T08:15:19.053Z,103.85
2022-08-17T08:15:54.773Z,85.63